createdAt,value
2022-11-18T00:00:15.710Z,96412.22
2022-11-18T00:02:43.056Z,96423.16
2022-11-18T00:05:10.001Z,96412.59
2022-11-18T00:07:36.982Z,96423.31
2022-11-18T00:10:04.617Z,96414.75
2022-11-18T00:12:50.266Z,96412.19
2022-11-18T00:15:17.236Z,96411.66
2022-11-18T00:17:44.512Z,96410.97
2022-11-18T00:20:11.842Z,96405.63
2022-11-18T00:22:38.777Z,96397.72
2022-11-18T00:25:06.461Z,96397.56
2022-11-18T00:27:33.757Z,96396.28
2022-11-18T00:30:00.726Z,96401.06
2022-11-18T00:32:28.075Z,96405.78
2022-11-18T00:34:54.976Z,96405.97
2022-11-18T00:37:22.526Z,96407.88
2022-11-18T00:39:49.819Z,96400.25
2022-11-18T00:42:35.592Z,96403.19
2022-11-18T00:45:02.905Z,96402.78
2022-11-18T00:47:30.206Z,96403.41
2022-11-18T00:49:57.513Z,96407.25
2022-11-18T00:52:24.815Z,96401.53
2022-11-18T00:54:52.314Z,96398.09
2022-11-18T00:57:19.662Z,96406.97
2022-11-18T00:59:46.584Z,96402.22
2022-11-18T01:02:13.897Z,96403.41
2022-11-18T01:04:41.205Z,96402.88
2022-11-18T01:07:08.100Z,96413.63
2022-11-18T01:09:35.487Z,96415.81
2022-11-18T01:12:21.360Z,96415.31
2022-11-18T01:14:48.261Z,96412.81
2022-11-18T01:17:15.311Z,96417.63
2022-11-18T01:19:42.354Z,96426.53
2022-11-18T01:22:09.683Z,96430.00
2022-11-18T01:24:36.615Z,96428.25
2022-11-18T01:27:04.092Z,96426.56
2022-11-18T01:29:31.417Z,96425.25
2022-11-18T01:34:45.650Z,96420.81
2022-11-18T01:37:12.956Z,96421.38
2022-11-18T01:39:40.313Z,96425.03
2022-11-18T01:42:16.251Z,96423.22
2022-11-18T01:45:04.803Z,96429.41
2022-11-18T01:47:45.613Z,96431.13
2022-11-18T01:50:15.459Z,96423.00
2022-11-18T01:52:45.243Z,96421.22
2022-11-18T01:55:26.416Z,96424.84
2022-11-18T01:58:16.239Z,96432.91
2022-11-18T02:00:43.252Z,96416.88
2022-11-18T02:03:10.593Z,96431.03
2022-11-18T02:05:38.426Z,96420.00
2022-11-18T02:08:07.696Z,96422.25
2022-11-18T02:10:34.810Z,96430.81
2022-11-18T02:13:02.682Z,96434.31
2022-11-18T02:16:02.281Z,96435.97
2022-11-18T02:18:45.553Z,96451.16
2022-11-18T02:21:39.086Z,96539.63
2022-11-18T02:24:36.605Z,96447.88
2022-11-18T02:27:47.074Z,96451.94
2022-11-18T02:30:20.708Z,96453.34
2022-11-18T02:33:11.325Z,96464.94
2022-11-18T02:36:03.687Z,96466.00
2022-11-18T02:38:42.892Z,96458.91
2022-11-18T02:41:15.916Z,96465.75
2022-11-18T02:44:09.566Z,96461.09
2022-11-18T02:46:39.779Z,96457.41
2022-11-18T02:49:15.729Z,96499.25
2022-11-18T02:51:45.118Z,96543.81
2022-11-18T02:54:13.862Z,96437.13
2022-11-18T02:56:42.390Z,96445.00
2022-11-18T02:59:09.684Z,96468.44
2022-11-18T03:01:37.372Z,96465.66
2022-11-18T03:04:04.751Z,96456.72
2022-11-18T03:06:33.660Z,96455.03
2022-11-18T03:09:28.500Z,96467.75
2022-11-18T03:12:16.865Z,96468.97
2022-11-18T03:14:57.639Z,96471.22
2022-11-18T03:17:33.069Z,96472.28
2022-11-18T03:20:25.899Z,96494.38
2022-11-18T03:23:30.712Z,96491.69
2022-11-18T03:26:21.262Z,96503.44
2022-11-18T03:29:01.584Z,96503.44
2022-11-18T03:31:42.713Z,96523.47
2022-11-18T03:34:20.820Z,96511.56
2022-11-18T03:36:58.329Z,96532.38
2022-11-18T03:39:30.719Z,96527.88
2022-11-18T03:42:11.681Z,96541.75
2022-11-18T03:44:48.268Z,96536.41
2022-11-18T03:47:34.860Z,96550.28
2022-11-18T03:50:17.723Z,96539.56
2022-11-18T03:52:45.562Z,96542.03
2022-11-18T03:55:22.057Z,96550.13
2022-11-18T03:58:04.908Z,96560.09
2022-11-18T04:00:42.547Z,96563.91
2022-11-18T04:03:10.298Z,96570.06
2022-11-18T04:05:41.295Z,96563.59
2022-11-18T04:08:15.078Z,96560.66
2022-11-18T04:10:59.819Z,96571.69
2022-11-18T04:13:32.909Z,96576.88
2022-11-18T04:16:00.454Z,96577.63
2022-11-18T04:18:28.121Z,96589.41
2022-11-18T04:20:58.118Z,96563.25
2022-11-18T04:23:24.991Z,96581.19
2022-11-18T04:25:51.856Z,96579.84
2022-11-18T04:28:19.147Z,96574.00
2022-11-18T04:30:46.420Z,96621.97
2022-11-18T04:33:13.721Z,96583.03
2022-11-18T04:35:40.574Z,96596.81
2022-11-18T04:38:07.882Z,96587.66
2022-11-18T04:40:35.145Z,96592.63
2022-11-18T04:43:02.430Z,96603.78
2022-11-18T04:45:29.511Z,96597.50
2022-11-18T04:48:03.112Z,96595.75
2022-11-18T04:50:30.540Z,96603.06
2022-11-18T04:52:57.858Z,96600.19
2022-11-18T04:55:27.150Z,96604.09
2022-11-18T04:57:54.463Z,96599.44
2022-11-18T05:00:22.381Z,96607.09
2022-11-18T05:02:50.022Z,96616.84
2022-11-18T05:05:16.991Z,96616.00
2022-11-18T05:07:44.306Z,96612.69
2022-11-18T05:10:11.718Z,96618.28
2022-11-18T05:12:52.205Z,96615.88
2022-11-18T05:15:22.392Z,96622.47
2022-11-18T05:17:50.233Z,96632.34
2022-11-18T05:20:17.571Z,96628.56
2022-11-18T05:22:44.860Z,96627.28
2022-11-18T05:25:12.144Z,96623.66
2022-11-18T05:27:39.456Z,96632.25
2022-11-18T05:30:09.345Z,96626.50
2022-11-18T05:32:36.650Z,96637.84
2022-11-18T05:35:04.069Z,96636.88
2022-11-18T05:37:33.606Z,96642.38
2022-11-18T05:40:00.948Z,96630.59
2022-11-18T05:42:46.934Z,96642.97
2022-11-18T05:45:15.937Z,96645.75
2022-11-18T05:48:01.465Z,96654.97
2022-11-18T05:50:28.818Z,96650.53
2022-11-18T05:52:56.515Z,96669.28
2022-11-18T05:55:29.051Z,96661.44
2022-11-18T05:57:56.350Z,96666.91
2022-11-18T06:00:23.727Z,96671.06
2022-11-18T06:02:52.984Z,96674.06
2022-11-18T06:05:22.220Z,96668.06
2022-11-18T06:07:49.550Z,96675.44
2022-11-18T06:10:28.561Z,96669.53
2022-11-18T06:13:00.793Z,96677.13
2022-11-18T06:15:31.526Z,96680.19
2022-11-18T06:18:05.706Z,96674.22
2022-11-18T06:20:35.790Z,96681.97
2022-11-18T06:23:03.155Z,96687.84
2022-11-18T06:25:30.721Z,96685.84
2022-11-18T06:28:01.513Z,96684.38
2022-11-18T06:30:28.432Z,96692.63
2022-11-18T06:32:55.925Z,96690.34
2022-11-18T06:35:23.334Z,96691.53
2022-11-18T06:37:50.598Z,96690.25
2022-11-18T06:40:18.024Z,96692.13
2022-11-18T06:43:04.005Z,96695.59
2022-11-18T06:45:31.453Z,96702.06
2022-11-18T06:48:02.488Z,96708.44
2022-11-18T06:50:30.418Z,96703.63
2022-11-18T06:53:00.366Z,96707.53
2022-11-18T06:55:27.946Z,96707.44
2022-11-18T06:57:56.925Z,96714.94
2022-11-18T07:00:24.316Z,96722.47
2022-11-18T07:02:51.554Z,96725.16
2022-11-18T07:05:18.903Z,96731.78
2022-11-18T07:07:45.929Z,96743.13
2022-11-18T07:10:13.396Z,96733.16
2022-11-18T07:12:40.686Z,96742.00
2022-11-18T07:15:08.413Z,96743.41
2022-11-18T07:17:35.343Z,96743.06
2022-11-18T07:20:03.385Z,96751.78
2022-11-18T07:22:30.898Z,96756.22
2022-11-18T07:24:58.588Z,96759.16
2022-11-18T07:27:26.008Z,96761.47
2022-11-18T07:29:53.105Z,96767.28
2022-11-18T07:32:20.508Z,96761.56
2022-11-18T07:34:47.949Z,96766.13
2022-11-18T07:37:15.334Z,96770.66
2022-11-18T07:39:42.757Z,96772.28
2022-11-18T07:42:10.270Z,96780.63
2022-11-18T07:44:37.685Z,96787.75
2022-11-18T07:47:05.174Z,96788.13
2022-11-18T07:49:32.599Z,96800.03
2022-11-18T07:52:00.123Z,96801.03
2022-11-18T07:54:27.558Z,96800.63
2022-11-18T07:56:54.998Z,96787.34
2022-11-18T07:59:22.468Z,96797.09
2022-11-18T08:01:49.966Z,96797.78
2022-11-18T08:04:17.981Z,96804.09
2022-11-18T08:06:45.629Z,96811.31
2022-11-18T08:09:13.116Z,96806.75
2022-11-18T08:11:40.988Z,96815.31
2022-11-18T08:14:08.868Z,96814.34
2022-11-18T08:16:39.479Z,96812.72
2022-11-18T08:19:12.650Z,96825.19
2022-11-18T08:21:42.537Z,96825.19
2022-11-18T08:24:10.467Z,96821.50
2022-11-18T08:26:37.869Z,96829.19
2022-11-18T08:29:05.173Z,96835.41
2022-11-18T08:31:32.705Z,96833.88
2022-11-18T08:34:03.828Z,96829.38
2022-11-18T08:36:35.065Z,96836.34
2022-11-18T08:39:06.017Z,96833.31
2022-11-18T08:41:43.491Z,96838.72
2022-11-18T08:44:15.072Z,96848.22
2022-11-18T08:46:48.119Z,96850.31
2022-11-18T08:49:16.126Z,96852.16
2022-11-18T08:51:43.755Z,96853.66
2022-11-18T08:54:11.058Z,96856.91
2022-11-18T08:56:39.095Z,96865.44
2022-11-18T08:59:06.784Z,96861.94
2022-11-18T09:01:34.624Z,96864.22
2022-11-18T09:04:01.703Z,96867.56
2022-11-18T09:06:29.064Z,96867.84
2022-11-18T09:08:57.364Z,96873.50
2022-11-18T09:11:27.486Z,96869.47
2022-11-18T09:16:47.151Z,96873.78
2022-11-18T09:20:06.986Z,96875.91
2022-11-18T09:22:37.795Z,96882.06
2022-11-18T09:25:05.512Z,96892.66
2022-11-18T09:27:32.857Z,96890.63
2022-11-18T09:30:00.276Z,96895.66
2022-11-18T09:32:27.840Z,96896.78
2022-11-18T09:34:55.151Z,96901.03
2022-11-18T09:37:22.513Z,96902.38
2022-11-18T09:39:50.186Z,96900.72
2022-11-18T09:42:23.534Z,96901.06
2022-11-18T09:45:28.426Z,96900.28
2022-11-18T09:48:00.941Z,96903.94
2022-11-18T09:53:21.728Z,96904.00
2022-11-18T09:55:51.159Z,96900.56
2022-11-18T09:58:36.642Z,96906.16
2022-11-18T10:01:14.104Z,96908.31
2022-11-18T10:03:44.320Z,96907.78
2022-11-18T10:06:23.848Z,96910.44
2022-11-18T10:09:21.100Z,96910.97
2022-11-18T10:12:25.714Z,96920.63
2022-11-18T10:15:05.175Z,96923.50
2022-11-18T10:17:46.892Z,96920.66
2022-11-18T10:20:41.833Z,96922.97
2022-11-18T10:23:18.712Z,96909.91
2022-11-18T10:25:46.017Z,96921.44
2022-11-18T10:28:29.603Z,96923.16
2022-11-18T10:31:09.915Z,96918.38
2022-11-18T10:33:38.115Z,96924.09
2022-11-18T10:36:30.468Z,96923.03
2022-11-18T10:39:15.752Z,96928.53
2022-11-18T10:42:06.501Z,96932.44
2022-11-18T10:44:40.017Z,96930.00
2022-11-18T10:47:24.072Z,96929.38
2022-11-18T10:49:52.965Z,96937.56
2022-11-18T10:52:20.398Z,96926.53
2022-11-18T10:55:20.013Z,96933.16
2022-11-18T10:57:48.222Z,96937.09
2022-11-18T11:00:42.577Z,96927.03
2022-11-18T11:03:38.872Z,96929.88
2022-11-18T11:06:23.281Z,96928.50
2022-11-18T11:09:06.167Z,96927.78
2022-11-18T11:11:40.326Z,96934.34
2022-11-18T11:14:32.421Z,96933.38
2022-11-18T11:17:15.919Z,96920.25
2022-11-18T11:20:06.257Z,96925.75
2022-11-18T11:22:33.636Z,96934.19
2022-11-18T11:25:00.713Z,96945.44
2022-11-18T11:31:24.047Z,96942.03
2022-11-18T11:34:11.222Z,96944.03
2022-11-18T11:37:04.438Z,96947.47
2022-11-18T11:39:48.825Z,96952.16
2022-11-18T11:42:45.807Z,96945.72
2022-11-18T11:45:41.664Z,96951.78
2022-11-18T11:48:56.263Z,96936.03
2022-11-18T11:51:33.588Z,96945.44
2022-11-18T11:54:41.895Z,96949.72
2022-11-18T11:57:42.244Z,96941.41
2022-11-18T12:00:15.314Z,96953.69
2022-11-18T12:03:17.505Z,96949.56
2022-11-18T12:05:45.884Z,96955.59
2022-11-18T12:08:26.261Z,96965.66
2022-11-18T12:11:03.742Z,96964.66
2022-11-18T12:14:04.291Z,96963.34
2022-11-18T12:17:03.800Z,96954.53
2022-11-18T12:19:31.245Z,96958.38
2022-11-18T12:22:05.150Z,96957.88
2022-11-18T12:24:38.389Z,96958.03
2022-11-18T12:27:30.279Z,96956.38
2022-11-18T12:30:03.895Z,96962.81
2022-11-18T12:32:43.333Z,96951.41
2022-11-18T12:35:13.209Z,96956.53
2022-11-18T12:37:45.006Z,96958.94
2022-11-18T12:40:48.779Z,96960.25
2022-11-18T12:43:50.745Z,96970.94
2022-11-18T12:46:26.880Z,96978.88
2022-11-18T12:48:54.226Z,96984.75
2022-11-18T12:51:21.082Z,96980.34
2022-11-18T12:53:54.698Z,96972.59
2022-11-18T12:56:27.557Z,96969.19
2022-11-18T12:58:57.921Z,96969.97
2022-11-18T13:01:31.994Z,96974.63
2022-11-18T13:04:19.662Z,96974.06
2022-11-18T13:06:47.640Z,96974.47
2022-11-18T13:09:23.080Z,96980.38
2022-11-18T13:12:08.725Z,96986.22
2022-11-18T13:14:59.822Z,96985.78
2022-11-18T13:17:58.698Z,96982.13
2022-11-18T13:20:35.395Z,96982.34
2022-11-18T13:23:32.980Z,96980.06
2022-11-18T13:26:06.821Z,96987.09
2022-11-18T13:29:13.477Z,96995.19
2022-11-18T13:32:10.069Z,96988.16
2022-11-18T13:34:51.398Z,96990.47
2022-11-18T13:37:28.578Z,96985.47
2022-11-18T13:39:56.238Z,96992.16
2022-11-18T13:42:32.540Z,96984.69
2022-11-18T13:45:01.923Z,96992.66
2022-11-18T13:47:39.510Z,96995.91
2022-11-18T13:50:25.248Z,96992.91
2022-11-18T13:53:34.171Z,96999.88
2022-11-18T13:56:07.664Z,96993.25
2022-11-18T13:59:10.276Z,97005.88
2022-11-18T14:01:33.415Z,97007.13
2022-11-18T14:04:08.137Z,97000.28
2022-11-18T14:06:41.130Z,97014.88
2022-11-18T14:09:25.858Z,97011.69
2022-11-18T14:12:23.477Z,97016.81
2022-11-18T14:14:50.856Z,97016.88
2022-11-18T14:17:27.180Z,97018.72
2022-11-18T14:19:58.012Z,97016.56
2022-11-18T14:22:27.798Z,97010.41
2022-11-18T14:25:21.041Z,97007.63
2022-11-18T14:27:54.108Z,96997.59
2022-11-18T14:30:36.762Z,97009.06
2022-11-18T14:33:17.438Z,97013.06
2022-11-18T14:35:58.192Z,97013.91
2022-11-18T14:39:11.367Z,97017.13
2022-11-18T14:41:49.181Z,97020.28
2022-11-18T14:44:22.438Z,97025.94
2022-11-18T14:49:59.676Z,97038.66
2022-11-18T14:52:33.119Z,97027.47
2022-11-18T14:55:02.385Z,97035.28
2022-11-18T14:57:34.858Z,97029.34
2022-11-18T15:00:18.159Z,97037.47
2022-11-18T15:02:45.996Z,97051.22
2022-11-18T15:06:01.775Z,97034.81
2022-11-18T15:11:38.928Z,97054.19
2022-11-18T15:17:35.762Z,97053.31
2022-11-18T15:20:23.428Z,97054.06
2022-11-18T15:22:53.919Z,97061.50
2022-11-18T15:25:21.297Z,97063.72
2022-11-18T15:27:48.926Z,97064.50
2022-11-18T15:30:16.995Z,97064.19
2022-11-18T15:32:44.765Z,97065.44
2022-11-18T15:35:13.986Z,97060.16
2022-11-18T15:37:43.075Z,97062.34
2022-11-18T15:40:11.585Z,97064.44
2022-11-18T15:42:48.836Z,97070.78
2022-11-18T15:45:19.248Z,97070.22
2022-11-18T15:47:47.199Z,97077.63
2022-11-18T15:50:14.802Z,97087.06
2022-11-18T15:52:42.253Z,97079.06
2022-11-18T15:55:10.322Z,97086.03
2022-11-18T15:57:38.623Z,97093.41
2022-11-18T16:00:13.657Z,97090.56
2022-11-18T16:02:41.022Z,97093.19
2022-11-18T16:05:10.006Z,97093.44
2022-11-18T16:07:37.734Z,97094.34
2022-11-18T16:13:54.286Z,97089.78
2022-11-18T16:16:25.828Z,97093.25
2022-11-18T16:19:44.031Z,97085.91
2022-11-18T16:22:20.993Z,97096.72
2022-11-18T16:27:45.893Z,97098.28
2022-11-18T16:31:00.001Z,97098.34
2022-11-18T16:33:27.201Z,97098.81
2022-11-18T16:35:54.569Z,97103.00
2022-11-18T16:38:21.873Z,97110.13
2022-11-18T16:40:56.552Z,97111.22
2022-11-18T16:43:24.312Z,97106.09
2022-11-18T16:45:55.309Z,97112.84
2022-11-18T16:49:05.219Z,97110.97
2022-11-18T16:51:51.750Z,97112.28
2022-11-18T16:54:27.970Z,97106.66
2022-11-18T16:56:57.782Z,97111.47
2022-11-18T16:59:28.808Z,97123.84
2022-11-18T17:01:58.669Z,97115.25
2022-11-18T17:04:28.142Z,97118.19
2022-11-18T17:06:55.997Z,97121.69
2022-11-18T17:09:24.427Z,97118.44
2022-11-18T17:11:54.241Z,97125.72
2022-11-18T17:14:22.073Z,97135.91
2022-11-18T17:16:50.305Z,97134.28
2022-11-18T17:19:21.141Z,97144.03
2022-11-18T17:21:49.173Z,97138.22
2022-11-18T17:24:22.201Z,97139.38
2022-11-18T17:26:50.812Z,97146.09
2022-11-18T17:29:18.651Z,97143.13
2022-11-18T17:31:46.211Z,97149.31
2022-11-18T17:34:14.542Z,97146.34
2022-11-18T17:36:42.316Z,97143.56
2022-11-18T17:39:11.433Z,97152.28
2022-11-18T17:41:57.707Z,97150.56
2022-11-18T17:44:24.826Z,97162.34
2022-11-18T17:46:52.356Z,97153.25
2022-11-18T17:49:22.017Z,97152.78
2022-11-18T17:51:51.052Z,97156.97
2022-11-18T17:54:19.519Z,97157.44
2022-11-18T17:56:47.210Z,97163.91
2022-11-18T17:59:15.660Z,97168.16
2022-11-18T18:01:44.243Z,97162.38
2022-11-18T18:04:14.299Z,97163.91
2022-11-18T18:06:41.461Z,97163.69
2022-11-18T18:09:08.735Z,97175.06
2022-11-18T18:11:36.156Z,97179.84
2022-11-18T18:14:12.537Z,97177.75
2022-11-18T18:16:51.019Z,97178.03
2022-11-18T18:19:21.263Z,97175.75
2022-11-18T18:21:48.962Z,97178.78
2022-11-18T18:24:18.166Z,97189.78
2022-11-18T18:26:45.902Z,97189.03
2022-11-18T18:29:13.428Z,97191.41
2022-11-18T18:31:40.841Z,97188.81
2022-11-18T18:34:08.249Z,97195.44
2022-11-18T18:36:35.391Z,97193.94
2022-11-18T18:39:02.941Z,97204.34
2022-11-18T18:41:31.215Z,97205.78
2022-11-18T18:43:59.012Z,97195.63
2022-11-18T18:46:33.947Z,97199.06
2022-11-18T18:49:02.944Z,97187.84
2022-11-18T18:51:36.352Z,97193.78
2022-11-18T18:54:04.300Z,97197.22
2022-11-18T18:56:31.890Z,97197.81
2022-11-18T18:58:59.506Z,97193.53
2022-11-18T19:01:28.256Z,97204.41
2022-11-18T19:03:58.275Z,97198.94
2022-11-18T19:06:51.639Z,97209.03
2022-11-18T19:09:14.634Z,97205.59
2022-11-18T19:12:00.586Z,97205.28
2022-11-18T19:14:28.240Z,97202.13
2022-11-18T19:16:56.313Z,97204.59
2022-11-18T19:19:45.781Z,97211.06
2022-11-18T19:22:15.414Z,97194.78
2022-11-18T19:24:49.718Z,97206.28
2022-11-18T19:27:19.134Z,97209.66
2022-11-18T19:29:46.676Z,97205.38
2022-11-18T19:32:14.480Z,97201.63
2022-11-18T19:34:41.858Z,97213.53
2022-11-18T19:37:09.220Z,97210.03
2022-11-18T19:39:40.619Z,97216.25
2022-11-18T19:42:10.782Z,97224.56
2022-11-18T19:44:38.938Z,97212.34
2022-11-18T19:47:06.420Z,97214.88
2022-11-18T19:49:33.880Z,97217.44
2022-11-18T19:52:01.617Z,97214.28
2022-11-18T19:54:29.205Z,97217.09
2022-11-18T19:56:56.690Z,97221.31
2022-11-18T19:59:24.101Z,97222.00
2022-11-18T20:01:51.576Z,97230.25
2022-11-18T20:04:19.139Z,97227.97
2022-11-18T20:06:46.719Z,97231.06
2022-11-18T20:09:14.119Z,97224.19
2022-11-18T20:11:42.934Z,97232.78
2022-11-18T20:14:11.856Z,97218.22
2022-11-18T20:16:39.416Z,97234.22
2022-11-18T20:19:10.695Z,97224.00
2022-11-18T20:21:39.071Z,97215.19
2022-11-18T20:24:08.210Z,97228.06
2022-11-18T20:26:38.363Z,97219.06
2022-11-18T20:29:07.214Z,97235.06
2022-11-18T20:31:36.281Z,97235.19
2022-11-18T20:34:03.841Z,97236.38
2022-11-18T20:36:36.349Z,97236.06
2022-11-18T20:39:08.303Z,97235.06
2022-11-18T20:41:36.473Z,97228.19
2022-11-18T20:44:06.215Z,97230.91
2022-11-18T20:46:34.750Z,97226.47
2022-11-18T20:49:02.287Z,97244.72
2022-11-18T20:51:29.997Z,97231.69
2022-11-18T20:53:59.738Z,97232.88
2022-11-18T20:56:28.098Z,97250.22
2022-11-18T20:58:57.916Z,97236.38
2022-11-18T21:01:28.536Z,97231.81
2022-11-18T21:04:01.518Z,97244.28
2022-11-18T21:06:31.139Z,97238.59
2022-11-18T21:09:02.547Z,97244.97
2022-11-18T21:11:32.131Z,97250.06
2022-11-18T21:14:23.314Z,97255.91
2022-11-18T21:16:52.896Z,97271.91
2022-11-18T21:19:20.726Z,97256.88
2022-11-18T21:21:49.179Z,97251.53
2022-11-18T21:24:19.988Z,97262.97
2022-11-18T21:26:49.788Z,97252.88
2022-11-18T21:29:18.273Z,97258.78
2022-11-18T21:31:47.046Z,97268.41
2022-11-18T21:34:15.300Z,97269.69
2022-11-18T21:36:50.415Z,97263.63
2022-11-18T21:39:24.603Z,97259.84
2022-11-18T21:41:57.009Z,97256.97
2022-11-18T21:44:26.039Z,97263.50
2022-11-18T21:46:56.847Z,97275.78
2022-11-18T21:49:24.409Z,97274.31
2022-11-18T21:51:51.866Z,97269.25
2022-11-18T21:54:19.234Z,97275.66
2022-11-18T21:56:46.724Z,97274.97
2022-11-18T21:59:14.156Z,97270.75
2022-11-18T22:01:41.678Z,97275.50
2022-11-18T22:04:29.022Z,97280.06
2022-11-18T22:06:56.423Z,97273.19
2022-11-18T22:09:24.079Z,97272.03
2022-11-18T22:11:51.577Z,97272.78
2022-11-18T22:14:18.991Z,97276.41
2022-11-18T22:16:46.329Z,97283.34
2022-11-18T22:19:13.849Z,97276.88
2022-11-18T22:21:41.511Z,97285.47
2022-11-18T22:24:09.153Z,97283.47
2022-11-18T22:26:36.521Z,97287.66
2022-11-18T22:29:03.870Z,97291.06
2022-11-18T22:31:31.183Z,97291.94
2022-11-18T22:33:58.512Z,97288.38
2022-11-18T22:36:27.080Z,97298.16
2022-11-18T22:38:54.957Z,97295.44
2022-11-18T22:41:44.246Z,97290.56
2022-11-18T22:44:15.759Z,97302.44
2022-11-18T22:46:45.058Z,97299.94
2022-11-18T22:49:12.882Z,97300.34
2022-11-18T22:51:40.834Z,97293.53
2022-11-18T22:56:56.470Z,97295.53
2022-11-18T22:59:24.500Z,97293.16
2022-11-18T23:01:52.064Z,97295.72
2022-11-18T23:04:19.530Z,97295.75
2022-11-18T23:06:48.158Z,97301.41
2022-11-18T23:09:15.566Z,97307.09
2022-11-18T23:12:03.588Z,97312.34
2022-11-18T23:14:31.428Z,97316.69
2022-11-18T23:16:58.819Z,97320.22
2022-11-18T23:19:32.143Z,97311.38
2022-11-18T23:21:59.583Z,97320.91
2022-11-18T23:24:26.924Z,97313.88
2022-11-18T23:26:54.325Z,97310.53
2022-11-18T23:29:22.221Z,97312.94
2022-11-18T23:31:49.889Z,97309.63
2022-11-18T23:34:17.522Z,97312.09
2022-11-18T23:36:44.891Z,97303.69
2022-11-18T23:39:12.978Z,97319.50
2022-11-18T23:41:40.689Z,97302.56
2022-11-18T23:44:08.010Z,97304.59
2022-11-18T23:46:36.043Z,97302.94
2022-11-18T23:49:07.071Z,97299.94
2022-11-18T23:51:34.392Z,97294.13
2022-11-18T23:54:01.814Z,97300.50
2022-11-18T23:56:30.883Z,97299.16
2022-11-18T23:59:00.196Z,97305.91
